QSI weather

Moshi Airport
Moshi, Kilimanjaro Region, Tanzania

Public forecast

Using degrees Celsius for public forecast. Weather courtesy of forecast.io.

METAR (pilot weather report)

Report is more than 6 hours old.

Retrieved 2018/11/14 12:00 UTC (4 months ago):

HTMS 141200Z 09010KT 9999 SCT034 32/12 Q1009

TAF (pilot weather forecast)

Forecast is more than 6 hours old.

Closest forecast is Kilimanjaro International Airport, 15.6 nm (29.0 km) WSW. Retrieved 2019/03/18 18:33 UTC (10 hours ago):

TAF HTKJ 181700Z 1818/1918 09015KT 9999 SCT030 1823/1902 09005KT